sensor_id;sensor_type;location;lat;lon;timestamp;P1;durP1;ratioP1;P2;durP2;ratioP2
68718;SDS011;55696;52.138;5.444;2023-05-10T00:00:59;24.00;;;12.25;;
68718;SDS011;55696;52.138;5.444;2023-05-10T00:03:25;24.52;;;12.85;;
68718;SDS011;55696;52.138;5.444;2023-05-10T00:05:53;24.23;;;12.18;;
68718;SDS011;55696;52.138;5.444;2023-05-10T00:08:19;21.67;;;12.23;;
68718;SDS011;55696;52.138;5.444;2023-05-10T00:10:46;24.97;;;13.03;;
68718;SDS011;55696;52.138;5.444;2023-05-10T00:13:13;26.30;;;13.77;;
68718;SDS011;55696;52.138;5.444;2023-05-10T00:15:40;25.25;;;12.68;;
68718;SDS011;55696;52.138;5.444;2023-05-10T00:18:06;27.23;;;12.90;;
68718;SDS011;55696;52.138;5.444;2023-05-10T00:20:33;28.33;;;13.77;;
68718;SDS011;55696;52.138;5.444;2023-05-10T00:23:00;30.37;;;15.37;;
68718;SDS011;55696;52.138;5.444;2023-05-10T00:25:27;24.15;;;13.57;;
68718;SDS011;55696;52.138;5.444;2023-05-10T00:27:54;25.75;;;14.25;;
68718;SDS011;55696;52.138;5.444;2023-05-10T00:30:23;27.23;;;14.07;;
68718;SDS011;55696;52.138;5.444;2023-05-10T00:32:50;33.38;;;16.27;;
68718;SDS011;55696;52.138;5.444;2023-05-10T00:35:17;29.83;;;15.43;;
68718;SDS011;55696;52.138;5.444;2023-05-10T00:37:44;31.23;;;15.57;;
68718;SDS011;55696;52.138;5.444;2023-05-10T00:40:11;37.05;;;16.67;;
68718;SDS011;55696;52.138;5.444;2023-05-10T00:42:39;37.30;;;17.40;;
68718;SDS011;55696;52.138;5.444;2023-05-10T00:45:06;40.67;;;18.63;;
68718;SDS011;55696;52.138;5.444;2023-05-10T00:47:34;41.33;;;20.17;;
68718;SDS011;55696;52.138;5.444;2023-05-10T00:50:01;36.53;;;16.85;;
68718;SDS011;55696;52.138;5.444;2023-05-10T00:52:28;51.83;;;21.10;;
68718;SDS011;55696;52.138;5.444;2023-05-10T00:54:57;49.15;;;21.15;;
68718;SDS011;55696;52.138;5.444;2023-05-10T00:57:24;51.50;;;21.95;;
68718;SDS011;55696;52.138;5.444;2023-05-10T00:59:51;42.40;;;19.27;;
68718;SDS011;55696;52.138;5.444;2023-05-10T01:02:18;41.53;;;19.33;;
68718;SDS011;55696;52.138;5.444;2023-05-10T01:04:45;50.47;;;21.92;;
68718;SDS011;55696;52.138;5.444;2023-05-10T01:07:12;49.63;;;21.65;;
68718;SDS011;55696;52.138;5.444;2023-05-10T01:09:39;44.17;;;20.23;;
68718;SDS011;55696;52.138;5.444;2023-05-10T01:12:06;49.80;;;24.40;;
68718;SDS011;55696;52.138;5.444;2023-05-10T01:14:33;45.70;;;20.27;;
68718;SDS011;55696;52.138;5.444;2023-05-10T01:17:02;45.00;;;21.13;;
68718;SDS011;55696;52.138;5.444;2023-05-10T01:19:31;50.17;;;21.98;;
68718;SDS011;55696;52.138;5.444;2023-05-10T01:22:03;45.70;;;20.63;;
68718;SDS011;55696;52.138;5.444;2023-05-10T01:24:37;51.47;;;22.33;;
68718;SDS011;55696;52.138;5.444;2023-05-10T01:27:37;53.38;;;21.05;;
68718;SDS011;55696;52.138;5.444;2023-05-10T01:35:52;50.50;;;22.05;;
68718;SDS011;55696;52.138;5.444;2023-05-10T01:46:27;55.17;;;22.65;;
68718;SDS011;55696;52.138;5.444;2023-05-10T01:49:03;52.35;;;21.15;;
68718;SDS011;55696;52.138;5.444;2023-05-10T01:51:41;45.27;;;20.57;;
68718;SDS011;55696;52.138;5.444;2023-05-10T01:54:13;53.38;;;20.60;;
68718;SDS011;55696;52.138;5.444;2023-05-10T01:56:43;42.35;;;19.48;;
68718;SDS011;55696;52.138;5.444;2023-05-10T01:59:12;44.00;;;19.70;;
68718;SDS011;55696;52.138;5.444;2023-05-10T02:01:43;52.60;;;21.90;;
68718;SDS011;55696;52.138;5.444;2023-05-10T02:04:13;53.50;;;23.23;;
68718;SDS011;55696;52.138;5.444;2023-05-10T02:06:44;49.88;;;20.20;;
68718;SDS011;55696;52.138;5.444;2023-05-10T02:09:14;46.13;;;19.77;;
68718;SDS011;55696;52.138;5.444;2023-05-10T02:11:43;44.58;;;19.90;;
68718;SDS011;55696;52.138;5.444;2023-05-10T02:14:11;50.70;;;22.00;;
68718;SDS011;55696;52.138;5.444;2023-05-10T02:16:38;54.03;;;21.93;;
68718;SDS011;55696;52.138;5.444;2023-05-10T02:19:06;56.53;;;22.85;;
68718;SDS011;55696;52.138;5.444;2023-05-10T02:21:35;57.42;;;22.50;;
68718;SDS011;55696;52.138;5.444;2023-05-10T02:24:03;58.67;;;23.40;;
68718;SDS011;55696;52.138;5.444;2023-05-10T02:26:31;57.22;;;22.52;;
68718;SDS011;55696;52.138;5.444;2023-05-10T02:29:00;56.23;;;23.00;;
68718;SDS011;55696;52.138;5.444;2023-05-10T02:31:30;47.08;;;19.50;;
68718;SDS011;55696;52.138;5.444;2023-05-10T02:33:59;51.33;;;22.35;;
68718;SDS011;55696;52.138;5.444;2023-05-10T02:36:27;59.28;;;24.35;;
68718;SDS011;55696;52.138;5.444;2023-05-10T02:38:56;50.17;;;22.10;;
68718;SDS011;55696;52.138;5.444;2023-05-10T02:41:24;44.93;;;20.27;;
68718;SDS011;55696;52.138;5.444;2023-05-10T02:43:52;51.10;;;22.15;;
68718;SDS011;55696;52.138;5.444;2023-05-10T02:46:23;50.20;;;21.23;;
68718;SDS011;55696;52.138;5.444;2023-05-10T02:48:50;52.95;;;22.52;;
68718;SDS011;55696;52.138;5.444;2023-05-10T02:51:17;48.53;;;21.00;;
68718;SDS011;55696;52.138;5.444;2023-05-10T02:53:46;50.17;;;22.50;;
68718;SDS011;55696;52.138;5.444;2023-05-10T02:56:19;55.08;;;23.90;;
68718;SDS011;55696;52.138;5.444;2023-05-10T02:58:51;47.42;;;20.15;;
68718;SDS011;55696;52.138;5.444;2023-05-10T03:01:18;48.78;;;21.23;;
68718;SDS011;55696;52.138;5.444;2023-05-10T03:03:45;57.72;;;23.55;;
68718;SDS011;55696;52.138;5.444;2023-05-10T03:06:12;57.53;;;23.27;;
68718;SDS011;55696;52.138;5.444;2023-05-10T03:08:38;60.58;;;23.73;;
68718;SDS011;55696;52.138;5.444;2023-05-10T03:11:56;63.13;;;24.92;;
68718;SDS011;55696;52.138;5.444;2023-05-10T03:16:56;72.78;;;25.33;;
68718;SDS011;55696;52.138;5.444;2023-05-10T03:19:32;65.43;;;24.77;;
68718;SDS011;55696;52.138;5.444;2023-05-10T03:22:24;75.20;;;26.92;;
68718;SDS011;55696;52.138;5.444;2023-05-10T03:24:56;67.70;;;26.50;;
68718;SDS011;55696;52.138;5.444;2023-05-10T03:27:26;73.22;;;26.20;;
68718;SDS011;55696;52.138;5.444;2023-05-10T03:29:55;68.63;;;26.08;;
68718;SDS011;55696;52.138;5.444;2023-05-10T03:32:22;71.33;;;26.40;;
68718;SDS011;55696;52.138;5.444;2023-05-10T03:34:49;69.95;;;25.92;;
68718;SDS011;55696;52.138;5.444;2023-05-10T03:37:16;78.00;;;26.63;;
68718;SDS011;55696;52.138;5.444;2023-05-10T03:39:43;70.30;;;23.88;;
68718;SDS011;55696;52.138;5.444;2023-05-10T03:42:10;68.63;;;23.98;;
68718;SDS011;55696;52.138;5.444;2023-05-10T03:44:38;75.90;;;26.43;;
68718;SDS011;55696;52.138;5.444;2023-05-10T03:47:06;69.75;;;25.00;;
68718;SDS011;55696;52.138;5.444;2023-05-10T03:49:32;70.45;;;26.15;;
68718;SDS011;55696;52.138;5.444;2023-05-10T03:52:00;69.47;;;24.40;;
68718;SDS011;55696;52.138;5.444;2023-05-10T03:54:27;74.75;;;25.75;;
68718;SDS011;55696;52.138;5.444;2023-05-10T03:56:53;65.70;;;24.20;;
68718;SDS011;55696;52.138;5.444;2023-05-10T03:59:21;72.63;;;25.83;;
68718;SDS011;55696;52.138;5.444;2023-05-10T04:01:50;69.50;;;25.50;;
68718;SDS011;55696;52.138;5.444;2023-05-10T04:04:17;62.72;;;24.13;;
68718;SDS011;55696;52.138;5.444;2023-05-10T04:06:47;77.65;;;27.15;;
68718;SDS011;55696;52.138;5.444;2023-05-10T04:09:14;70.90;;;26.47;;
68718;SDS011;55696;52.138;5.444;2023-05-10T04:11:41;78.13;;;26.45;;
68718;SDS011;55696;52.138;5.444;2023-05-10T04:14:08;71.75;;;25.58;;
68718;SDS011;55696;52.138;5.444;2023-05-10T04:16:35;73.35;;;25.52;;
68718;SDS011;55696;52.138;5.444;2023-05-10T04:19:01;75.70;;;25.45;;
68718;SDS011;55696;52.138;5.444;2023-05-10T04:21:29;65.03;;;24.63;;
68718;SDS011;55696;52.138;5.444;2023-05-10T04:23:56;85.38;;;25.80;;
68718;SDS011;55696;52.138;5.444;2023-05-10T04:26:23;67.18;;;24.40;;
68718;SDS011;55696;52.138;5.444;2023-05-10T04:28:51;74.90;;;26.30;;
68718;SDS011;55696;52.138;5.444;2023-05-10T04:31:18;66.70;;;24.65;;
68718;SDS011;55696;52.138;5.444;2023-05-10T04:33:44;73.97;;;27.23;;
68718;SDS011;55696;52.138;5.444;2023-05-10T04:36:11;64.97;;;24.60;;
68718;SDS011;55696;52.138;5.444;2023-05-10T04:38:38;72.05;;;24.88;;
68718;SDS011;55696;52.138;5.444;2023-05-10T04:41:05;69.95;;;24.95;;
68718;SDS011;55696;52.138;5.444;2023-05-10T04:43:36;66.68;;;24.35;;
68718;SDS011;55696;52.138;5.444;2023-05-10T04:46:03;68.43;;;24.13;;
68718;SDS011;55696;52.138;5.444;2023-05-10T04:48:31;63.83;;;23.80;;
68718;SDS011;55696;52.138;5.444;2023-05-10T04:50:58;78.35;;;25.73;;
68718;SDS011;55696;52.138;5.444;2023-05-10T04:53:24;75.20;;;26.58;;
68718;SDS011;55696;52.138;5.444;2023-05-10T04:55:51;77.88;;;25.10;;
68718;SDS011;55696;52.138;5.444;2023-05-10T04:58:18;73.47;;;25.73;;
68718;SDS011;55696;52.138;5.444;2023-05-10T05:00:45;76.68;;;24.75;;
68718;SDS011;55696;52.138;5.444;2023-05-10T05:03:11;73.35;;;25.20;;
68718;SDS011;55696;52.138;5.444;2023-05-10T05:05:38;77.05;;;27.15;;
68718;SDS011;55696;52.138;5.444;2023-05-10T05:08:05;61.22;;;22.90;;
68718;SDS011;55696;52.138;5.444;2023-05-10T05:10:32;69.23;;;24.47;;
68718;SDS011;55696;52.138;5.444;2023-05-10T05:12:59;73.10;;;23.65;;
68718;SDS011;55696;52.138;5.444;2023-05-10T05:15:25;78.28;;;25.67;;
68718;SDS011;55696;52.138;5.444;2023-05-10T05:17:52;69.40;;;24.15;;
68718;SDS011;55696;52.138;5.444;2023-05-10T05:20:19;73.03;;;25.42;;
68718;SDS011;55696;52.138;5.444;2023-05-10T05:22:46;73.60;;;26.90;;
68718;SDS011;55696;52.138;5.444;2023-05-10T05:25:13;76.38;;;25.85;;
68718;SDS011;55696;52.138;5.444;2023-05-10T05:27:41;79.20;;;26.42;;
68718;SDS011;55696;52.138;5.444;2023-05-10T05:30:08;82.53;;;26.63;;
68718;SDS011;55696;52.138;5.444;2023-05-10T05:32:35;77.30;;;25.65;;
68718;SDS011;55696;52.138;5.444;2023-05-10T05:35:02;82.80;;;29.27;;
68718;SDS011;55696;52.138;5.444;2023-05-10T05:37:29;71.70;;;25.83;;
68718;SDS011;55696;52.138;5.444;2023-05-10T05:39:55;82.85;;;28.67;;
68718;SDS011;55696;52.138;5.444;2023-05-10T05:42:22;72.65;;;26.33;;
68718;SDS011;55696;52.138;5.444;2023-05-10T05:44:49;64.40;;;25.17;;
68718;SDS011;55696;52.138;5.444;2023-05-10T05:47:15;72.70;;;26.57;;
68718;SDS011;55696;52.138;5.444;2023-05-10T05:49:42;68.32;;;23.95;;
68718;SDS011;55696;52.138;5.444;2023-05-10T05:52:12;62.90;;;24.50;;
68718;SDS011;55696;52.138;5.444;2023-05-10T05:54:38;65.10;;;25.00;;
68718;SDS011;55696;52.138;5.444;2023-05-10T05:57:05;68.50;;;25.67;;
68718;SDS011;55696;52.138;5.444;2023-05-10T05:59:33;63.63;;;23.23;;
68718;SDS011;55696;52.138;5.444;2023-05-10T06:02:00;66.63;;;24.63;;
68718;SDS011;55696;52.138;5.444;2023-05-10T06:04:27;66.50;;;25.15;;
68718;SDS011;55696;52.138;5.444;2023-05-10T06:06:54;60.47;;;23.10;;
68718;SDS011;55696;52.138;5.444;2023-05-10T06:09:21;52.30;;;20.67;;
68718;SDS011;55696;52.138;5.444;2023-05-10T06:11:49;59.33;;;23.17;;
68718;SDS011;55696;52.138;5.444;2023-05-10T06:14:16;46.20;;;20.13;;
68718;SDS011;55696;52.138;5.444;2023-05-10T06:16:43;48.38;;;20.58;;
68718;SDS011;55696;52.138;5.444;2023-05-10T06:19:10;45.72;;;20.10;;
68718;SDS011;55696;52.138;5.444;2023-05-10T06:21:36;54.80;;;22.77;;
68718;SDS011;55696;52.138;5.444;2023-05-10T06:24:03;58.60;;;22.83;;
68718;SDS011;55696;52.138;5.444;2023-05-10T06:26:31;54.05;;;22.25;;
68718;SDS011;55696;52.138;5.444;2023-05-10T06:28:59;50.03;;;22.30;;
68718;SDS011;55696;52.138;5.444;2023-05-10T06:31:26;50.75;;;22.33;;
68718;SDS011;55696;52.138;5.444;2023-05-10T06:33:53;57.60;;;22.15;;
68718;SDS011;55696;52.138;5.444;2023-05-10T06:36:22;48.23;;;21.27;;
68718;SDS011;55696;52.138;5.444;2023-05-10T06:38:50;49.55;;;20.60;;
68718;SDS011;55696;52.138;5.444;2023-05-10T06:41:17;42.97;;;19.15;;
68718;SDS011;55696;52.138;5.444;2023-05-10T06:43:44;43.17;;;18.73;;
68718;SDS011;55696;52.138;5.444;2023-05-10T06:46:10;47.33;;;19.30;;
68718;SDS011;55696;52.138;5.444;2023-05-10T06:48:37;40.80;;;16.33;;
68718;SDS011;55696;52.138;5.444;2023-05-10T06:51:04;41.08;;;16.77;;
68718;SDS011;55696;52.138;5.444;2023-05-10T06:53:31;34.70;;;16.08;;
68718;SDS011;55696;52.138;5.444;2023-05-10T06:55:57;36.42;;;15.80;;
68718;SDS011;55696;52.138;5.444;2023-05-10T06:58:24;40.28;;;16.00;;
68718;SDS011;55696;52.138;5.444;2023-05-10T07:00:51;33.00;;;15.23;;
68718;SDS011;55696;52.138;5.444;2023-05-10T07:03:18;34.45;;;14.60;;
68718;SDS011;55696;52.138;5.444;2023-05-10T07:05:45;29.70;;;12.90;;
68718;SDS011;55696;52.138;5.444;2023-05-10T07:08:14;25.42;;;12.88;;
68718;SDS011;55696;52.138;5.444;2023-05-10T07:10:41;25.70;;;12.45;;
68718;SDS011;55696;52.138;5.444;2023-05-10T07:13:08;27.33;;;13.00;;
68718;SDS011;55696;52.138;5.444;2023-05-10T07:15:36;20.83;;;10.57;;
68718;SDS011;55696;52.138;5.444;2023-05-10T07:18:02;25.70;;;10.93;;
68718;SDS011;55696;52.138;5.444;2023-05-10T07:20:30;21.33;;;10.70;;
68718;SDS011;55696;52.138;5.444;2023-05-10T07:22:57;20.90;;;9.52;;
68718;SDS011;55696;52.138;5.444;2023-05-10T07:25:24;16.97;;;8.77;;
68718;SDS011;55696;52.138;5.444;2023-05-10T07:27:51;21.17;;;10.55;;
68718;SDS011;55696;52.138;5.444;2023-05-10T07:30:17;19.63;;;9.85;;
68718;SDS011;55696;52.138;5.444;2023-05-10T07:32:44;19.73;;;9.80;;
68718;SDS011;55696;52.138;5.444;2023-05-10T07:35:11;20.08;;;9.57;;
68718;SDS011;55696;52.138;5.444;2023-05-10T07:37:38;18.77;;;9.20;;
68718;SDS011;55696;52.138;5.444;2023-05-10T07:40:05;20.48;;;8.73;;
68718;SDS011;55696;52.138;5.444;2023-05-10T07:42:32;19.05;;;9.07;;
68718;SDS011;55696;52.138;5.444;2023-05-10T07:44:59;17.58;;;8.05;;
68718;SDS011;55696;52.138;5.444;2023-05-10T07:47:25;18.00;;;8.27;;
68718;SDS011;55696;52.138;5.444;2023-05-10T07:49:52;19.70;;;9.60;;
68718;SDS011;55696;52.138;5.444;2023-05-10T07:52:19;19.55;;;9.13;;
68718;SDS011;55696;52.138;5.444;2023-05-10T07:54:48;22.60;;;9.63;;
68718;SDS011;55696;52.138;5.444;2023-05-10T07:57:15;19.73;;;9.63;;
68718;SDS011;55696;52.138;5.444;2023-05-10T07:59:43;16.95;;;8.90;;
68718;SDS011;55696;52.138;5.444;2023-05-10T08:02:11;16.27;;;8.20;;
68718;SDS011;55696;52.138;5.444;2023-05-10T08:04:38;15.70;;;8.35;;
68718;SDS011;55696;52.138;5.444;2023-05-10T08:07:04;16.35;;;8.57;;
68718;SDS011;55696;52.138;5.444;2023-05-10T08:09:31;18.13;;;8.57;;
68718;SDS011;55696;52.138;5.444;2023-05-10T08:11:58;16.08;;;9.00;;
68718;SDS011;55696;52.138;5.444;2023-05-10T08:14:27;16.63;;;8.73;;
68718;SDS011;55696;52.138;5.444;2023-05-10T08:16:55;14.85;;;7.43;;
68718;SDS011;55696;52.138;5.444;2023-05-10T08:19:22;16.25;;;7.63;;
68718;SDS011;55696;52.138;5.444;2023-05-10T08:21:49;18.65;;;8.43;;
68718;SDS011;55696;52.138;5.444;2023-05-10T08:24:17;14.43;;;7.82;;
68718;SDS011;55696;52.138;5.444;2023-05-10T08:26:43;14.30;;;7.93;;
68718;SDS011;55696;52.138;5.444;2023-05-10T08:29:10;14.77;;;7.93;;
68718;SDS011;55696;52.138;5.444;2023-05-10T08:31:37;15.55;;;8.18;;
68718;SDS011;55696;52.138;5.444;2023-05-10T08:34:04;20.10;;;9.07;;
68718;SDS011;55696;52.138;5.444;2023-05-10T08:36:30;18.90;;;9.75;;
68718;SDS011;55696;52.138;5.444;2023-05-10T08:38:58;21.00;;;9.27;;
68718;SDS011;55696;52.138;5.444;2023-05-10T08:41:25;18.45;;;9.02;;
68718;SDS011;55696;52.138;5.444;2023-05-10T08:43:52;16.52;;;9.40;;
68718;SDS011;55696;52.138;5.444;2023-05-10T08:46:20;17.00;;;9.20;;
68718;SDS011;55696;52.138;5.444;2023-05-10T08:48:49;19.02;;;10.15;;
68718;SDS011;55696;52.138;5.444;2023-05-10T08:51:18;18.07;;;8.90;;
68718;SDS011;55696;52.138;5.444;2023-05-10T08:53:47;18.38;;;9.02;;
68718;SDS011;55696;52.138;5.444;2023-05-10T08:56:15;20.58;;;11.23;;
68718;SDS011;55696;52.138;5.444;2023-05-10T08:58:43;17.77;;;9.75;;
68718;SDS011;55696;52.138;5.444;2023-05-10T09:01:11;17.80;;;10.18;;
68718;SDS011;55696;52.138;5.444;2023-05-10T09:03:39;17.73;;;8.70;;
68718;SDS011;55696;52.138;5.444;2023-05-10T09:06:06;17.65;;;9.23;;
68718;SDS011;55696;52.138;5.444;2023-05-10T09:08:34;18.17;;;9.07;;
68718;SDS011;55696;52.138;5.444;2023-05-10T09:11:02;16.95;;;9.38;;
68718;SDS011;55696;52.138;5.444;2023-05-10T09:13:29;17.85;;;9.15;;
68718;SDS011;55696;52.138;5.444;2023-05-10T09:15:56;16.10;;;8.20;;
68718;SDS011;55696;52.138;5.444;2023-05-10T09:18:32;13.15;;;7.68;;
68718;SDS011;55696;52.138;5.444;2023-05-10T09:20:59;15.40;;;8.38;;
68718;SDS011;55696;52.138;5.444;2023-05-10T09:23:25;14.05;;;7.03;;
68718;SDS011;55696;52.138;5.444;2023-05-10T09:26:01;12.30;;;7.72;;
68718;SDS011;55696;52.138;5.444;2023-05-10T09:28:34;16.07;;;8.20;;
68718;SDS011;55696;52.138;5.444;2023-05-10T09:31:15;11.05;;;6.05;;
68718;SDS011;55696;52.138;5.444;2023-05-10T09:33:45;11.35;;;6.65;;
68718;SDS011;55696;52.138;5.444;2023-05-10T09:36:13;14.40;;;6.75;;
68718;SDS011;55696;52.138;5.444;2023-05-10T09:38:51;11.52;;;5.70;;
68718;SDS011;55696;52.138;5.444;2023-05-10T09:41:19;7.87;;;4.50;;
68718;SDS011;55696;52.138;5.444;2023-05-10T09:43:49;8.02;;;4.05;;
68718;SDS011;55696;52.138;5.444;2023-05-10T09:46:16;6.22;;;3.85;;
68718;SDS011;55696;52.138;5.444;2023-05-10T09:48:44;8.10;;;4.13;;
68718;SDS011;55696;52.138;5.444;2023-05-10T09:51:46;6.65;;;3.40;;
68718;SDS011;55696;52.138;5.444;2023-05-10T09:54:23;9.37;;;3.80;;
68718;SDS011;55696;52.138;5.444;2023-05-10T09:56:50;6.35;;;3.40;;
68718;SDS011;55696;52.138;5.444;2023-05-10T09:59:17;6.85;;;3.03;;
68718;SDS011;55696;52.138;5.444;2023-05-10T10:01:55;5.72;;;3.28;;
68718;SDS011;55696;52.138;5.444;2023-05-10T10:04:23;6.75;;;3.40;;
68718;SDS011;55696;52.138;5.444;2023-05-10T10:07:00;7.50;;;3.70;;
68718;SDS011;55696;52.138;5.444;2023-05-10T10:09:31;7.10;;;3.75;;
68718;SDS011;55696;52.138;5.444;2023-05-10T10:11:59;8.25;;;4.03;;
68718;SDS011;55696;52.138;5.444;2023-05-10T10:14:27;9.82;;;4.43;;
68718;SDS011;55696;52.138;5.444;2023-05-10T10:16:55;8.18;;;4.35;;
68718;SDS011;55696;52.138;5.444;2023-05-10T10:19:34;10.30;;;5.50;;
68718;SDS011;55696;52.138;5.444;2023-05-10T10:22:02;8.18;;;4.70;;
68718;SDS011;55696;52.138;5.444;2023-05-10T10:24:29;7.60;;;4.60;;
68718;SDS011;55696;52.138;5.444;2023-05-10T10:26:57;8.43;;;4.68;;
68718;SDS011;55696;52.138;5.444;2023-05-10T10:35:52;9.27;;;5.72;;
68718;SDS011;55696;52.138;5.444;2023-05-10T10:38:20;10.77;;;5.40;;
68718;SDS011;55696;52.138;5.444;2023-05-10T10:40:47;9.43;;;5.60;;
68718;SDS011;55696;52.138;5.444;2023-05-10T10:43:27;8.55;;;5.00;;
68718;SDS011;55696;52.138;5.444;2023-05-10T10:46:10;11.27;;;5.33;;
68718;SDS011;55696;52.138;5.444;2023-05-10T10:48:40;9.80;;;5.70;;
68718;SDS011;55696;52.138;5.444;2023-05-10T10:51:07;9.73;;;5.68;;
68718;SDS011;55696;52.138;5.444;2023-05-10T10:53:37;12.57;;;5.80;;
68718;SDS011;55696;52.138;5.444;2023-05-10T10:56:12;11.20;;;5.90;;
68718;SDS011;55696;52.138;5.444;2023-05-10T10:58:42;10.60;;;5.50;;
68718;SDS011;55696;52.138;5.444;2023-05-10T11:01:19;10.60;;;5.38;;
68718;SDS011;55696;52.138;5.444;2023-05-10T11:06:31;9.05;;;5.13;;
68718;SDS011;55696;52.138;5.444;2023-05-10T11:09:09;10.27;;;4.90;;
68718;SDS011;55696;52.138;5.444;2023-05-10T11:11:48;9.10;;;5.20;;
68718;SDS011;55696;52.138;5.444;2023-05-10T11:14:19;8.80;;;4.72;;
68718;SDS011;55696;52.138;5.444;2023-05-10T11:16:47;8.65;;;4.80;;
68718;SDS011;55696;52.138;5.444;2023-05-10T11:19:15;9.68;;;4.70;;
68718;SDS011;55696;52.138;5.444;2023-05-10T11:21:46;9.55;;;4.72;;
68718;SDS011;55696;52.138;5.444;2023-05-10T11:24:15;10.00;;;4.90;;
68718;SDS011;55696;52.138;5.444;2023-05-10T11:26:45;7.70;;;4.40;;
68718;SDS011;55696;52.138;5.444;2023-05-10T11:29:15;9.90;;;5.20;;
68718;SDS011;55696;52.138;5.444;2023-05-10T11:31:46;9.05;;;5.22;;
68718;SDS011;55696;52.138;5.444;2023-05-10T11:34:29;8.57;;;4.85;;
68718;SDS011;55696;52.138;5.444;2023-05-10T11:37:00;10.07;;;5.50;;
68718;SDS011;55696;52.138;5.444;2023-05-10T11:39:27;10.85;;;5.53;;
68718;SDS011;55696;52.138;5.444;2023-05-10T11:41:54;9.82;;;5.10;;
68718;SDS011;55696;52.138;5.444;2023-05-10T11:44:21;10.32;;;5.30;;
68718;SDS011;55696;52.138;5.444;2023-05-10T11:46:48;9.30;;;4.72;;
68718;SDS011;55696;52.138;5.444;2023-05-10T11:49:15;7.93;;;4.53;;
68718;SDS011;55696;52.138;5.444;2023-05-10T11:51:42;11.55;;;4.70;;
68718;SDS011;55696;52.138;5.444;2023-05-10T11:54:10;11.75;;;5.45;;
68718;SDS011;55696;52.138;5.444;2023-05-10T11:56:40;7.53;;;4.25;;
68718;SDS011;55696;52.138;5.444;2023-05-10T11:59:07;8.57;;;4.15;;
68718;SDS011;55696;52.138;5.444;2023-05-10T12:01:34;8.97;;;4.27;;
68718;SDS011;55696;52.138;5.444;2023-05-10T12:04:02;8.63;;;4.22;;
68718;SDS011;55696;52.138;5.444;2023-05-10T12:06:30;7.00;;;3.90;;
68718;SDS011;55696;52.138;5.444;2023-05-10T12:08:58;8.93;;;3.75;;
68718;SDS011;55696;52.138;5.444;2023-05-10T12:11:26;5.85;;;3.78;;
68718;SDS011;55696;52.138;5.444;2023-05-10T12:13:54;10.60;;;3.87;;
68718;SDS011;55696;52.138;5.444;2023-05-10T12:16:24;7.05;;;3.35;;
68718;SDS011;55696;52.138;5.444;2023-05-10T12:18:56;7.18;;;3.35;;
68718;SDS011;55696;52.138;5.444;2023-05-10T12:21:24;8.18;;;3.83;;
68718;SDS011;55696;52.138;5.444;2023-05-10T12:23:52;7.18;;;3.42;;
68718;SDS011;55696;52.138;5.444;2023-05-10T12:26:24;9.37;;;3.13;;
68718;SDS011;55696;52.138;5.444;2023-05-10T12:28:53;7.57;;;2.70;;
68718;SDS011;55696;52.138;5.444;2023-05-10T12:31:20;6.28;;;2.75;;
68718;SDS011;55696;52.138;5.444;2023-05-10T12:33:47;4.57;;;2.50;;
68718;SDS011;55696;52.138;5.444;2023-05-10T12:36:15;4.97;;;2.50;;
68718;SDS011;55696;52.138;5.444;2023-05-10T12:38:45;7.73;;;3.17;;
68718;SDS011;55696;52.138;5.444;2023-05-10T12:41:16;6.68;;;2.92;;
68718;SDS011;55696;52.138;5.444;2023-05-10T12:43:44;5.53;;;2.95;;
68718;SDS011;55696;52.138;5.444;2023-05-10T12:46:15;5.30;;;3.05;;
68718;SDS011;55696;52.138;5.444;2023-05-10T12:48:43;7.00;;;2.90;;
68718;SDS011;55696;52.138;5.444;2023-05-10T12:51:12;5.70;;;3.07;;
68718;SDS011;55696;52.138;5.444;2023-05-10T12:53:41;11.70;;;3.78;;
68718;SDS011;55696;52.138;5.444;2023-05-10T12:56:11;6.45;;;2.90;;
68718;SDS011;55696;52.138;5.444;2023-05-10T12:58:38;5.85;;;2.85;;
68718;SDS011;55696;52.138;5.444;2023-05-10T13:01:05;9.18;;;2.90;;
68718;SDS011;55696;52.138;5.444;2023-05-10T13:03:32;6.13;;;2.60;;
68718;SDS011;55696;52.138;5.444;2023-05-10T13:05:59;6.18;;;2.40;;
68718;SDS011;55696;52.138;5.444;2023-05-10T13:08:25;5.53;;;2.70;;
68718;SDS011;55696;52.138;5.444;2023-05-10T13:10:52;5.32;;;3.33;;
68718;SDS011;55696;52.138;5.444;2023-05-10T13:13:19;5.68;;;2.40;;
68718;SDS011;55696;52.138;5.444;2023-05-10T13:15:46;4.77;;;2.23;;
68718;SDS011;55696;52.138;5.444;2023-05-10T13:18:13;6.13;;;2.40;;
68718;SDS011;55696;52.138;5.444;2023-05-10T13:20:39;3.97;;;2.20;;
68718;SDS011;55696;52.138;5.444;2023-05-10T13:23:06;6.45;;;2.70;;
68718;SDS011;55696;52.138;5.444;2023-05-10T13:25:33;6.95;;;4.15;;
68718;SDS011;55696;52.138;5.444;2023-05-10T13:28:00;8.40;;;3.60;;
68718;SDS011;55696;52.138;5.444;2023-05-10T13:30:27;8.80;;;4.57;;
68718;SDS011;55696;52.138;5.444;2023-05-10T13:32:54;9.50;;;5.00;;
68718;SDS011;55696;52.138;5.444;2023-05-10T13:35:21;11.18;;;5.47;;
68718;SDS011;55696;52.138;5.444;2023-05-10T13:37:48;9.38;;;5.07;;
68718;SDS011;55696;52.138;5.444;2023-05-10T13:40:16;8.97;;;5.10;;
68718;SDS011;55696;52.138;5.444;2023-05-10T13:42:43;12.85;;;5.70;;
68718;SDS011;55696;52.138;5.444;2023-05-10T13:45:10;10.23;;;5.10;;
68718;SDS011;55696;52.138;5.444;2023-05-10T13:47:39;10.23;;;5.20;;
68718;SDS011;55696;52.138;5.444;2023-05-10T13:50:06;12.25;;;5.35;;
68718;SDS011;55696;52.138;5.444;2023-05-10T13:52:33;17.50;;;5.47;;
68718;SDS011;55696;52.138;5.444;2023-05-10T13:55:00;11.40;;;6.20;;
68718;SDS011;55696;52.138;5.444;2023-05-10T13:57:26;12.73;;;5.70;;
68718;SDS011;55696;52.138;5.444;2023-05-10T13:59:54;10.73;;;5.32;;
68718;SDS011;55696;52.138;5.444;2023-05-10T14:02:22;11.35;;;5.70;;
68718;SDS011;55696;52.138;5.444;2023-05-10T14:04:50;12.40;;;6.00;;
68718;SDS011;55696;52.138;5.444;2023-05-10T14:07:17;12.50;;;5.63;;
68718;SDS011;55696;52.138;5.444;2023-05-10T14:09:44;10.35;;;5.43;;
68718;SDS011;55696;52.138;5.444;2023-05-10T14:12:11;9.77;;;5.03;;
68718;SDS011;55696;52.138;5.444;2023-05-10T14:14:38;11.40;;;4.93;;
68718;SDS011;55696;52.138;5.444;2023-05-10T14:17:05;9.73;;;5.10;;
68718;SDS011;55696;52.138;5.444;2023-05-10T14:19:31;13.38;;;6.97;;
68718;SDS011;55696;52.138;5.444;2023-05-10T14:22:00;10.25;;;5.22;;
68718;SDS011;55696;52.138;5.444;2023-05-10T14:24:26;12.05;;;5.68;;
68718;SDS011;55696;52.138;5.444;2023-05-10T14:26:53;14.25;;;5.78;;
68718;SDS011;55696;52.138;5.444;2023-05-10T14:29:20;10.67;;;5.17;;
68718;SDS011;55696;52.138;5.444;2023-05-10T14:31:48;10.90;;;5.03;;
68718;SDS011;55696;52.138;5.444;2023-05-10T14:34:15;13.32;;;6.00;;
68718;SDS011;55696;52.138;5.444;2023-05-10T14:36:42;10.43;;;5.10;;
68718;SDS011;55696;52.138;5.444;2023-05-10T14:39:09;12.02;;;5.72;;
68718;SDS011;55696;52.138;5.444;2023-05-10T14:41:38;12.97;;;5.77;;
68718;SDS011;55696;52.138;5.444;2023-05-10T14:44:07;12.35;;;6.03;;
68718;SDS011;55696;52.138;5.444;2023-05-10T14:46:34;12.80;;;6.22;;
68718;SDS011;55696;52.138;5.444;2023-05-10T14:49:01;12.65;;;6.13;;
68718;SDS011;55696;52.138;5.444;2023-05-10T14:51:28;12.85;;;6.00;;
68718;SDS011;55696;52.138;5.444;2023-05-10T14:53:54;11.07;;;6.23;;
68718;SDS011;55696;52.138;5.444;2023-05-10T14:56:21;14.82;;;6.53;;
68718;SDS011;55696;52.138;5.444;2023-05-10T14:58:49;13.48;;;5.50;;
68718;SDS011;55696;52.138;5.444;2023-05-10T15:01:16;12.77;;;5.05;;
68718;SDS011;55696;52.138;5.444;2023-05-10T15:03:43;11.77;;;6.03;;